createdAt,value
2019-02-02T00:00:38.150Z,0.12
2019-02-02T00:03:07.844Z,-0.20
2019-02-02T00:05:36.217Z,-0.35
2019-02-02T00:08:05.836Z,-0.32
2019-02-02T00:10:34.460Z,-0.33
2019-02-02T00:13:02.920Z,-0.24
2019-02-02T00:15:31.379Z,-0.15
2019-02-02T00:17:59.754Z,-0.05
2019-02-02T00:20:28.142Z,-0.26
2019-02-02T00:22:56.519Z,-0.22
2019-02-02T00:25:24.904Z,-0.23
2019-02-02T00:27:53.279Z,-0.37
2019-02-02T00:30:21.668Z,-0.32
2019-02-02T00:32:50.044Z,-0.35
2019-02-02T00:35:18.433Z,-0.28
2019-02-02T00:37:46.807Z,-0.35
2019-02-02T00:40:21.764Z,-0.30
2019-02-02T00:42:50.145Z,-0.48
2019-02-02T00:45:22.672Z,-0.40
2019-02-02T00:47:52.280Z,-0.37
2019-02-02T00:50:20.659Z,-0.57
2019-02-02T00:52:49.112Z,-0.50
2019-02-02T00:55:20.759Z,-0.56
2019-02-02T00:57:53.410Z,-0.60
2019-02-02T01:00:26.896Z,-0.53
2019-02-02T01:02:55.339Z,-0.60
2019-02-02T01:05:24.669Z,-0.53
2019-02-02T01:07:54.272Z,-0.57
2019-02-02T01:10:34.760Z,-0.47
2019-02-02T01:13:03.368Z,-0.40
2019-02-02T01:15:31.818Z,-0.53
2019-02-02T01:18:00.200Z,-0.49
2019-02-02T01:20:29.857Z,-0.49
2019-02-02T01:22:58.410Z,-0.44
2019-02-02T01:25:26.859Z,-0.36
2019-02-02T01:28:04.915Z,-0.42
2019-02-02T01:30:26.384Z,-0.47
2019-02-02T01:32:54.825Z,-0.36
2019-02-02T01:35:23.206Z,-0.46
2019-02-02T01:37:51.652Z,-0.40
2019-02-02T01:40:27.649Z,-0.41
2019-02-02T01:43:33.333Z,-0.30
2019-02-02T01:46:33.163Z,-0.12
2019-02-02T01:49:02.689Z,-0.25
2019-02-02T01:51:40.058Z,-0.30
2019-02-02T01:57:16.694Z,-0.15
2019-02-02T02:00:10.417Z,-0.12
2019-02-02T02:02:51.286Z,-0.09
2019-02-02T02:08:34.278Z,0.04
2019-02-02T02:11:03.508Z,0.09
2019-02-02T02:13:51.967Z,0.13
2019-02-02T02:16:39.467Z,0.14
2019-02-02T02:19:07.838Z,0.10
2019-02-02T02:21:36.238Z,-0.03
2019-02-02T02:24:04.694Z,-0.14
2019-02-02T02:26:52.199Z,-0.19
2019-02-02T02:29:39.830Z,-0.15
2019-02-02T02:32:08.215Z,-0.11
2019-02-02T02:34:36.597Z,0.10
2019-02-02T02:37:04.975Z,0.11
2019-02-02T02:39:33.350Z,0.04
2019-02-02T02:42:01.737Z,-0.01
2019-02-02T02:44:49.355Z,0.14
2019-02-02T02:47:17.741Z,0.14
2019-02-02T02:50:05.359Z,0.22
2019-02-02T02:52:33.743Z,0.14
2019-02-02T02:55:21.232Z,0.12
2019-02-02T02:57:49.609Z,0.07
2019-02-02T03:00:37.329Z,0.05
2019-02-02T03:03:45.660Z,0.10
2019-02-02T03:06:33.270Z,0.15
2019-02-02T03:09:41.553Z,0.18
2019-02-02T03:12:29.057Z,0.19
2019-02-02T03:20:39.577Z,-0.11
2019-02-02T03:23:27.215Z,-0.18
2019-02-02T03:31:37.187Z,0.06
2019-02-02T03:34:05.575Z,0.03
2019-02-02T03:36:53.188Z,0.17
2019-02-02T03:39:21.568Z,0.35
2019-02-02T03:41:49.943Z,0.40
2019-02-02T03:44:18.327Z,0.32
2019-02-02T03:46:46.697Z,0.45
2019-02-02T03:49:15.115Z,0.43
2019-02-02T03:51:43.488Z,0.32
2019-02-02T03:54:11.891Z,0.25
2019-02-02T03:56:40.263Z,0.29
2019-02-02T03:59:08.650Z,0.30
2019-02-02T04:01:37.039Z,0.19
2019-02-02T04:04:05.494Z,-0.03
2019-02-02T04:06:33.868Z,-0.02
2019-02-02T04:09:02.246Z,0.11
2019-02-02T04:11:30.621Z,0.31
2019-02-02T04:13:59.000Z,0.35
2019-02-02T04:16:27.478Z,0.28
2019-02-02T04:18:55.863Z,0.38
2019-02-02T04:21:24.239Z,0.51
2019-02-02T04:23:52.829Z,0.43
2019-02-02T04:26:21.246Z,0.51
2019-02-02T04:28:49.866Z,0.51
2019-02-02T04:31:18.240Z,0.54
2019-02-02T04:33:46.624Z,0.57
2019-02-02T04:36:14.999Z,0.32
2019-02-02T04:38:43.385Z,0.51
2019-02-02T04:41:11.763Z,0.37
2019-02-02T04:43:40.163Z,0.35
2019-02-02T04:46:08.535Z,0.54
2019-02-02T04:48:36.921Z,0.15
2019-02-02T04:51:05.386Z,0.23
2019-02-02T04:53:33.822Z,0.11
2019-02-02T04:56:02.214Z,0.11
2019-02-02T04:58:30.590Z,-0.03
2019-02-02T05:00:58.989Z,-0.05
2019-02-02T05:03:27.349Z,0.15
2019-02-02T05:05:55.734Z,0.08
2019-02-02T05:08:24.107Z,0.15
2019-02-02T05:10:52.687Z,0.27
2019-02-02T05:13:21.067Z,0.29
2019-02-02T05:15:49.452Z,0.25
2019-02-02T05:18:17.821Z,0.31
2019-02-02T05:20:46.201Z,0.37
2019-02-02T05:23:14.573Z,0.45
2019-02-02T05:25:42.959Z,0.42
2019-02-02T05:28:11.334Z,0.35
2019-02-02T05:30:39.718Z,0.38
2019-02-02T05:33:08.093Z,0.30
2019-02-02T05:35:36.800Z,0.23
2019-02-02T05:38:05.174Z,0.12
2019-02-02T05:40:33.560Z,0.11
2019-02-02T05:43:01.936Z,0.30
2019-02-02T05:45:30.317Z,0.08
2019-02-02T05:47:58.694Z,-0.12
2019-02-02T05:50:27.084Z,0.08
2019-02-02T05:52:55.461Z,0.16
2019-02-02T05:55:24.386Z,0.11
2019-02-02T05:57:52.871Z,-0.09
2019-02-02T06:00:36.644Z,-0.14
2019-02-02T06:03:05.679Z,-0.03
2019-02-02T06:05:34.064Z,-0.11
2019-02-02T06:08:02.638Z,-0.24
2019-02-02T06:10:31.025Z,-0.25
2019-02-02T06:12:59.396Z,-0.28
2019-02-02T06:15:28.839Z,-0.10
2019-02-02T06:17:57.620Z,-0.09
2019-02-02T06:20:25.991Z,0.03
2019-02-02T06:22:54.435Z,0.06
2019-02-02T06:25:23.106Z,0.08
2019-02-02T06:27:51.473Z,0.14
2019-02-02T06:30:21.591Z,0.36
2019-02-02T06:32:50.197Z,0.24
2019-02-02T06:35:19.263Z,0.15
2019-02-02T06:37:47.591Z,0.23
2019-02-02T06:40:17.317Z,0.02
2019-02-02T06:42:45.686Z,0.13
2019-02-02T06:45:25.773Z,0.22
2019-02-02T06:47:54.213Z,0.41
2019-02-02T06:50:22.589Z,0.40
2019-02-02T06:52:50.966Z,0.64
2019-02-02T06:55:19.413Z,0.49
2019-02-02T06:57:47.801Z,0.80
2019-02-02T07:00:18.620Z,0.90
2019-02-02T07:02:47.061Z,1.02
2019-02-02T07:05:15.588Z,1.00
2019-02-02T07:07:44.286Z,0.73
2019-02-02T07:10:16.294Z,0.66
2019-02-02T07:12:44.686Z,0.80
2019-02-02T07:15:15.797Z,0.62
2019-02-02T07:17:44.198Z,0.70
2019-02-02T07:20:13.982Z,0.59
2019-02-02T07:22:42.376Z,0.68
2019-02-02T07:25:11.487Z,0.69
2019-02-02T07:27:39.867Z,0.73
2019-02-02T07:30:27.659Z,0.74
2019-02-02T07:32:46.669Z,0.73
2019-02-02T07:35:15.110Z,0.60
2019-02-02T07:37:43.490Z,0.47
2019-02-02T07:40:15.233Z,0.70
2019-02-02T07:42:43.684Z,0.74
2019-02-02T07:45:17.750Z,0.84
2019-02-02T07:47:46.303Z,1.14
2019-02-02T07:50:16.214Z,1.19
2019-02-02T07:52:45.138Z,1.15
2019-02-02T07:55:18.426Z,1.07
2019-02-02T07:57:46.808Z,1.16
2019-02-02T08:00:23.661Z,1.30
2019-02-02T08:02:52.047Z,1.43
2019-02-02T08:05:20.423Z,1.44
2019-02-02T08:07:48.805Z,1.28
2019-02-02T08:10:17.271Z,1.46
2019-02-02T08:12:45.723Z,1.24
2019-02-02T08:15:28.525Z,1.34
2019-02-02T08:17:57.078Z,1.42
2019-02-02T08:20:25.449Z,1.36
2019-02-02T08:22:56.452Z,1.25
2019-02-02T08:25:23.929Z,1.21
2019-02-02T08:27:52.423Z,1.47
2019-02-02T08:30:23.510Z,1.56
2019-02-02T08:32:51.897Z,1.28
2019-02-02T08:35:20.608Z,1.34
2019-02-02T08:37:49.158Z,1.25
2019-02-02T08:40:19.370Z,1.20
2019-02-02T08:42:47.753Z,1.24
2019-02-02T08:45:16.603Z,1.25
2019-02-02T08:47:44.948Z,1.49
2019-02-02T08:50:25.231Z,1.68
2019-02-02T08:52:53.820Z,1.91
2019-02-02T08:55:22.212Z,1.92
2019-02-02T08:57:50.689Z,2.12
2019-02-02T09:00:20.865Z,2.06
2019-02-02T09:02:49.338Z,2.02
2019-02-02T09:05:20.270Z,2.10
2019-02-02T09:07:48.650Z,2.20
2019-02-02T09:10:25.599Z,2.19
2019-02-02T09:12:54.143Z,2.23
2019-02-02T09:15:22.542Z,2.29
2019-02-02T09:17:50.918Z,2.05
2019-02-02T09:20:19.393Z,2.24
2019-02-02T09:22:49.393Z,2.43
2019-02-02T09:25:18.916Z,2.49
2019-02-02T09:27:47.422Z,2.19
2019-02-02T09:30:18.783Z,2.30
2019-02-02T09:32:47.156Z,2.50
2019-02-02T09:35:15.673Z,2.29
2019-02-02T09:37:44.049Z,2.22
2019-02-02T09:40:17.430Z,1.99
2019-02-02T09:43:05.210Z,1.69
2019-02-02T09:45:33.593Z,1.81
2019-02-02T09:48:01.968Z,1.88
2019-02-02T09:50:30.349Z,2.01
2019-02-02T09:53:17.984Z,1.98
2019-02-02T09:56:05.670Z,2.10
2019-02-02T10:01:27.735Z,1.86
2019-02-02T10:04:10.702Z,1.82
2019-02-02T10:09:13.781Z,2.01
2019-02-02T10:14:35.663Z,2.39
2019-02-02T10:17:23.290Z,2.35
2019-02-02T10:19:51.674Z,2.25
2019-02-02T10:22:42.211Z,2.30
2019-02-02T10:25:50.504Z,2.21
2019-02-02T10:28:18.879Z,2.20
2019-02-02T10:31:06.512Z,2.38
2019-02-02T10:33:54.129Z,2.62
2019-02-02T10:36:22.586Z,2.50
2019-02-02T10:39:10.251Z,2.42
2019-02-02T10:44:12.202Z,2.32
2019-02-02T10:46:40.650Z,2.22
2019-02-02T10:51:56.526Z,2.57
2019-02-02T10:54:44.250Z,2.83
2019-02-02T10:57:12.642Z,2.77
2019-02-02T11:02:47.582Z,2.69
2019-02-02T11:05:55.944Z,2.72
2019-02-02T11:08:24.551Z,2.92
2019-02-02T11:10:54.587Z,3.07
2019-02-02T11:13:43.851Z,3.29
2019-02-02T11:16:12.251Z,3.50
2019-02-02T11:18:59.922Z,3.66
2019-02-02T11:21:28.357Z,3.71
2019-02-02T11:23:56.757Z,3.38
2019-02-02T11:26:32.057Z,3.14
2019-02-02T11:29:02.219Z,3.11
2019-02-02T11:32:02.234Z,3.12
2019-02-02T11:34:21.500Z,2.98
2019-02-02T11:37:08.999Z,3.04
2019-02-02T11:39:56.617Z,3.03
2019-02-02T11:44:58.767Z,2.96
2019-02-02T11:47:46.265Z,3.09
2019-02-02T11:50:54.552Z,3.18
2019-02-02T11:53:22.938Z,3.00
2019-02-02T11:56:13.775Z,3.09
2019-02-02T11:59:01.467Z,3.17
2019-02-02T12:01:48.966Z,3.21
2019-02-02T12:04:17.337Z,3.39
2019-02-02T12:06:45.722Z,3.40
2019-02-02T12:09:14.100Z,3.30
2019-02-02T12:11:42.490Z,3.08
2019-02-02T12:14:10.858Z,2.99
2019-02-02T12:16:58.577Z,2.86
2019-02-02T12:19:26.948Z,2.78
2019-02-02T12:21:55.330Z,2.52
2019-02-02T12:24:42.951Z,2.60
2019-02-02T12:27:30.447Z,2.42
2019-02-02T12:29:58.829Z,2.39
2019-02-02T12:32:46.329Z,2.58
2019-02-02T12:35:34.053Z,2.78
2019-02-02T12:38:02.442Z,2.96
2019-02-02T12:40:50.130Z,3.13
2019-02-02T12:43:57.119Z,2.85
2019-02-02T12:46:25.497Z,2.96
2019-02-02T12:48:53.904Z,2.79
2019-02-02T12:51:22.278Z,2.74
2019-02-02T12:54:09.999Z,2.94
2019-02-02T12:56:38.371Z,3.22
2019-02-02T12:59:46.667Z,3.20
2019-02-02T13:02:38.243Z,3.35
2019-02-02T13:05:23.588Z,3.52
2019-02-02T13:07:51.971Z,3.77
2019-02-02T13:11:00.261Z,3.95
2019-02-02T13:13:47.904Z,3.96
2019-02-02T13:16:16.280Z,3.68
2019-02-02T13:19:04.008Z,3.76
2019-02-02T13:21:51.635Z,3.52
2019-02-02T13:24:20.020Z,3.39
2019-02-02T13:27:07.651Z,3.02
2019-02-02T13:29:55.284Z,2.92
2019-02-02T13:35:51.025Z,2.89
2019-02-02T13:38:19.423Z,3.12
2019-02-02T13:41:06.911Z,3.37
2019-02-02T13:43:35.295Z,3.53
2019-02-02T13:46:23.184Z,3.63
2019-02-02T13:51:25.972Z,3.86
2019-02-02T13:54:06.290Z,3.80
2019-02-02T13:56:43.719Z,3.92
2019-02-02T14:01:45.805Z,3.90
2019-02-02T14:04:33.320Z,3.94
2019-02-02T14:07:01.707Z,4.09
2019-02-02T14:12:03.915Z,4.39
2019-02-02T14:14:32.304Z,4.50
2019-02-02T14:17:00.685Z,4.56
2019-02-02T14:19:29.067Z,4.72
2019-02-02T14:21:57.451Z,4.76
2019-02-02T14:24:25.840Z,4.73
2019-02-02T14:26:54.222Z,4.63
2019-02-02T14:29:22.751Z,4.54
2019-02-02T14:31:51.126Z,4.26
2019-02-02T14:34:19.522Z,4.27
2019-02-02T14:36:47.895Z,4.33
2019-02-02T14:39:16.282Z,4.38
2019-02-02T14:41:44.658Z,4.30
2019-02-02T14:44:13.097Z,4.35
2019-02-02T14:46:41.471Z,4.23
2019-02-02T14:49:09.929Z,4.20
2019-02-02T14:51:38.306Z,4.40
2019-02-02T14:54:06.684Z,4.53
2019-02-02T14:56:35.076Z,4.67
2019-02-02T14:59:03.928Z,4.42
2019-02-02T15:01:32.345Z,4.51
2019-02-02T15:04:00.825Z,4.38
2019-02-02T15:06:29.326Z,4.27
2019-02-02T15:08:57.698Z,3.83
2019-02-02T15:11:26.159Z,3.81
2019-02-02T15:13:54.546Z,3.62
2019-02-02T15:16:22.944Z,3.74
2019-02-02T15:18:51.320Z,3.55
2019-02-02T15:21:19.702Z,3.40
2019-02-02T15:23:48.080Z,3.15
2019-02-02T15:26:16.470Z,3.02
2019-02-02T15:28:44.864Z,3.16
2019-02-02T15:31:13.263Z,3.04
2019-02-02T15:33:41.644Z,3.15
2019-02-02T15:36:10.040Z,3.22
2019-02-02T15:38:38.435Z,3.08
2019-02-02T15:41:06.821Z,3.13
2019-02-02T15:43:35.200Z,3.16
2019-02-02T15:46:03.584Z,3.10
2019-02-02T15:48:31.959Z,3.02
2019-02-02T15:51:00.349Z,2.95
2019-02-02T15:53:28.735Z,2.90
2019-02-02T15:55:57.124Z,3.04
2019-02-02T15:58:25.498Z,3.18
2019-02-02T16:00:53.885Z,3.25
2019-02-02T16:03:22.258Z,3.40
2019-02-02T16:05:50.647Z,3.54
2019-02-02T16:08:19.024Z,3.51
2019-02-02T16:10:47.411Z,3.50
2019-02-02T16:13:15.799Z,3.23
2019-02-02T16:15:44.182Z,3.29
2019-02-02T16:18:12.557Z,3.34
2019-02-02T16:20:42.789Z,3.27
2019-02-02T16:23:11.226Z,3.26
2019-02-02T16:25:39.612Z,3.29
2019-02-02T16:28:08.093Z,3.28
2019-02-02T16:30:36.473Z,3.16
2019-02-02T16:33:05.248Z,3.07
2019-02-02T16:35:33.760Z,2.99
2019-02-02T16:38:02.149Z,3.15
2019-02-02T16:40:31.371Z,3.13
2019-02-02T16:42:59.750Z,3.08
2019-02-02T16:45:30.374Z,3.02
2019-02-02T16:47:59.018Z,3.13
2019-02-02T16:50:27.533Z,3.12
2019-02-02T16:52:55.924Z,3.23
2019-02-02T16:55:24.375Z,3.36
2019-02-02T16:57:52.934Z,3.30
2019-02-02T17:00:30.432Z,3.25
2019-02-02T17:02:58.907Z,3.15
2019-02-02T17:05:27.514Z,3.19
2019-02-02T17:07:56.087Z,3.15
2019-02-02T17:10:29.334Z,3.27
2019-02-02T17:12:57.786Z,3.20
2019-02-02T17:15:26.333Z,3.34
2019-02-02T17:17:54.704Z,3.31
2019-02-02T17:20:25.892Z,3.45
2019-02-02T17:22:54.282Z,3.42
2019-02-02T17:25:23.154Z,3.19
2019-02-02T17:27:51.593Z,3.08
2019-02-02T17:30:21.804Z,3.11
2019-02-02T17:32:50.823Z,3.10
2019-02-02T17:35:19.384Z,3.19
2019-02-02T17:37:47.758Z,3.25
2019-02-02T17:40:18.567Z,3.28
2019-02-02T17:42:46.950Z,3.39
2019-02-02T17:45:20.373Z,3.43
2019-02-02T17:47:49.299Z,3.43
2019-02-02T17:50:19.315Z,3.46
2019-02-02T17:52:47.947Z,3.47
2019-02-02T17:55:16.397Z,3.62
2019-02-02T17:57:44.784Z,3.28
2019-02-02T18:00:16.049Z,3.34
2019-02-02T18:02:44.452Z,3.18
2019-02-02T18:05:13.004Z,3.28
2019-02-02T18:07:41.379Z,3.43
2019-02-02T18:10:12.104Z,3.25
2019-02-02T18:12:40.700Z,3.17
2019-02-02T18:15:16.496Z,3.07
2019-02-02T18:17:44.877Z,3.00
2019-02-02T18:20:17.264Z,2.99
2019-02-02T18:22:45.711Z,2.91
2019-02-02T18:25:15.739Z,3.06
2019-02-02T18:27:44.381Z,3.02
2019-02-02T18:30:17.949Z,2.98
2019-02-02T18:32:46.415Z,3.13
2019-02-02T18:35:16.034Z,3.29
2019-02-02T18:37:44.581Z,3.35
2019-02-02T18:40:21.074Z,3.39
2019-02-02T18:42:49.600Z,3.44
2019-02-02T18:45:20.428Z,3.52
2019-02-02T18:47:48.875Z,3.42
2019-02-02T18:50:18.081Z,3.24
2019-02-02T18:52:48.106Z,3.23
2019-02-02T18:55:28.397Z,3.37
2019-02-02T18:57:56.783Z,3.47
2019-02-02T19:00:25.270Z,3.61
2019-02-02T19:02:53.735Z,3.52
2019-02-02T19:05:22.246Z,3.63
2019-02-02T19:07:50.700Z,3.45
2019-02-02T19:10:24.824Z,3.56
2019-02-02T19:12:53.205Z,3.57
2019-02-02T19:15:21.591Z,3.31
2019-02-02T19:17:49.982Z,3.41
2019-02-02T19:20:20.494Z,3.58
2019-02-02T19:22:48.943Z,3.40
2019-02-02T19:25:17.504Z,3.50
2019-02-02T19:27:45.884Z,3.54
2019-02-02T19:30:33.546Z,3.40
2019-02-02T19:33:01.918Z,3.46
2019-02-02T19:35:30.403Z,3.44
2019-02-02T19:37:58.771Z,3.48
2019-02-02T19:40:27.158Z,3.55
2019-02-02T19:42:55.590Z,3.54
2019-02-02T19:45:28.140Z,3.36
2019-02-02T19:47:56.528Z,3.29
2019-02-02T19:50:26.787Z,3.38
2019-02-02T19:52:55.408Z,3.24
2019-02-02T19:55:23.852Z,3.16
2019-02-02T19:57:52.225Z,3.16
2019-02-02T20:00:31.647Z,3.26
2019-02-02T20:03:00.285Z,3.31
2019-02-02T20:05:29.333Z,3.27
2019-02-02T20:07:57.731Z,3.14
2019-02-02T20:10:26.111Z,3.14
2019-02-02T20:12:54.555Z,3.10
2019-02-02T20:15:24.962Z,3.13
2019-02-02T20:17:53.408Z,3.08
2019-02-02T20:21:01.696Z,3.22
2019-02-02T20:23:49.412Z,2.95
2019-02-02T20:31:26.150Z,3.27
2019-02-02T20:34:13.845Z,3.17
2019-02-02T20:37:01.485Z,3.04
2019-02-02T20:42:36.530Z,2.99
2019-02-02T20:45:44.893Z,3.04
2019-02-02T20:48:32.535Z,3.07
2019-02-02T20:51:02.641Z,2.96
2019-02-02T20:53:31.068Z,3.01
2019-02-02T20:56:18.709Z,2.90
2019-02-02T20:58:47.087Z,3.04
2019-02-02T21:01:17.201Z,3.02
2019-02-02T21:04:04.702Z,2.93
2019-02-02T21:06:52.364Z,2.96
2019-02-02T21:09:20.747Z,3.06
2019-02-02T21:11:56.540Z,2.78
2019-02-02T21:14:38.630Z,2.88
2019-02-02T21:17:08.746Z,2.88
2019-02-02T21:19:37.214Z,2.72
2019-02-02T21:22:05.773Z,2.45
2019-02-02T21:24:34.170Z,2.35
2019-02-02T21:27:02.639Z,2.27
2019-02-02T21:29:31.024Z,2.30
2019-02-02T21:31:59.690Z,2.19
2019-02-02T21:34:28.063Z,2.12
2019-02-02T21:36:56.511Z,2.00
2019-02-02T21:39:25.015Z,1.93
2019-02-02T21:41:53.403Z,1.91
2019-02-02T21:44:21.775Z,1.64
2019-02-02T21:46:50.162Z,1.63
2019-02-02T21:49:18.539Z,1.75
2019-02-02T21:51:47.165Z,1.92
2019-02-02T21:54:15.617Z,1.77
2019-02-02T21:56:44.007Z,1.86
2019-02-02T21:59:12.385Z,1.99
2019-02-02T22:01:40.763Z,2.09
2019-02-02T22:04:09.156Z,2.09
2019-02-02T22:06:37.574Z,1.93
2019-02-02T22:09:07.700Z,1.86
2019-02-02T22:11:36.155Z,1.66
2019-02-02T22:14:05.055Z,1.66
2019-02-02T22:16:33.541Z,1.82
2019-02-02T22:19:02.184Z,1.57
2019-02-02T22:21:30.565Z,1.68
2019-02-02T22:23:58.955Z,1.75
2019-02-02T22:26:27.444Z,1.73
2019-02-02T22:28:57.849Z,1.69
2019-02-02T22:31:25.943Z,1.87
2019-02-02T22:33:54.395Z,1.75
2019-02-02T22:36:27.633Z,2.00
2019-02-02T22:38:52.932Z,2.11
2019-02-02T22:41:21.566Z,2.23
2019-02-02T22:43:49.950Z,2.31
2019-02-02T22:46:18.402Z,2.22
2019-02-02T22:48:46.795Z,2.12
2019-02-02T22:51:15.168Z,2.06
2019-02-02T22:53:43.558Z,1.99
2019-02-02T22:56:12.387Z,2.11
2019-02-02T22:58:40.771Z,2.20
2019-02-02T23:01:15.505Z,2.10
2019-02-02T23:04:02.419Z,2.08
2019-02-02T23:06:39.306Z,2.02
2019-02-02T23:09:26.454Z,2.05
2019-02-02T23:12:00.623Z,1.83
2019-02-02T23:14:32.058Z,2.08
2019-02-02T23:17:00.437Z,2.01
2019-02-02T23:19:29.024Z,2.01
2019-02-02T23:21:57.414Z,2.10
2019-02-02T23:24:25.789Z,2.06
2019-02-02T23:26:54.173Z,1.91
2019-02-02T23:29:22.691Z,2.07
2019-02-02T23:31:51.741Z,2.10
2019-02-02T23:34:20.196Z,2.29
2019-02-02T23:36:52.615Z,2.54
2019-02-02T23:39:18.693Z,2.65
2019-02-02T23:41:47.115Z,2.60
2019-02-02T23:44:15.500Z,2.77
2019-02-02T23:46:43.880Z,2.94
2019-02-02T23:49:12.269Z,3.08
2019-02-02T23:51:40.647Z,3.14
2019-02-02T23:54:09.413Z,3.30
2019-02-02T23:56:37.796Z,3.35
2019-02-02T23:59:06.200Z,3.24
